sensor_id;sensor_type;location;lat;lon;timestamp;pressure;altitude;pressure_sealevel;temperature;humidity
16978;BME280;8605;52.548;4.918;2024-03-02T00:01:05;99722.94;;;7.88;83.61
16978;BME280;8605;52.548;4.918;2024-03-02T00:03:34;99738.13;;;8.12;81.27
16978;BME280;8605;52.548;4.918;2024-03-02T00:06:02;99745.84;;;7.98;82.11
16978;BME280;8605;52.548;4.918;2024-03-02T00:08:31;99755.41;;;7.93;82.58
16978;BME280;8605;52.548;4.918;2024-03-02T00:11:00;99753.22;;;7.96;82.80
16978;BME280;8605;52.548;4.918;2024-03-02T00:13:29;99748.69;;;8.05;82.29
16978;BME280;8605;52.548;4.918;2024-03-02T00:15:58;99776.00;;;8.00;83.64
16978;BME280;8605;52.548;4.918;2024-03-02T00:18:27;99768.09;;;7.91;84.14
16978;BME280;8605;52.548;4.918;2024-03-02T00:20:58;99776.81;;;7.85;84.25
16978;BME280;8605;52.548;4.918;2024-03-02T00:23:28;99783.69;;;7.71;86.32
16978;BME280;8605;52.548;4.918;2024-03-02T00:25:59;99808.06;;;7.60;86.82
16978;BME280;8605;52.548;4.918;2024-03-02T00:28:29;99791.84;;;7.53;86.36
16978;BME280;8605;52.548;4.918;2024-03-02T00:31:03;99797.84;;;7.47;86.81
16978;BME280;8605;52.548;4.918;2024-03-02T00:33:32;99797.66;;;7.41;87.12
16978;BME280;8605;52.548;4.918;2024-03-02T00:36:03;99799.16;;;7.35;87.95
16978;BME280;8605;52.548;4.918;2024-03-02T00:38:31;99807.00;;;7.29;88.72
16978;BME280;8605;52.548;4.918;2024-03-02T00:41:04;99803.13;;;7.23;89.30
16978;BME280;8605;52.548;4.918;2024-03-02T00:43:42;99801.25;;;7.15;90.04
16978;BME280;8605;52.548;4.918;2024-03-02T00:46:16;99814.44;;;7.09;90.69
16978;BME280;8605;52.548;4.918;2024-03-02T00:48:54;99829.16;;;7.05;91.43
16978;BME280;8605;52.548;4.918;2024-03-02T00:51:23;99826.13;;;7.00;91.43
16978;BME280;8605;52.548;4.918;2024-03-02T00:53:52;99819.41;;;6.96;91.52
16978;BME280;8605;52.548;4.918;2024-03-02T00:56:24;99822.75;;;6.98;91.36
16978;BME280;8605;52.548;4.918;2024-03-02T00:58:53;99830.59;;;6.91;92.61
16978;BME280;8605;52.548;4.918;2024-03-02T01:01:20;99825.72;;;6.87;92.04
16978;BME280;8605;52.548;4.918;2024-03-02T01:03:49;99834.88;;;6.84;92.69
16978;BME280;8605;52.548;4.918;2024-03-02T01:06:17;99836.38;;;6.78;92.81
16978;BME280;8605;52.548;4.918;2024-03-02T01:08:45;99845.03;;;6.72;93.26
16978;BME280;8605;52.548;4.918;2024-03-02T01:11:17;99834.00;;;6.75;93.13
16978;BME280;8605;52.548;4.918;2024-03-02T01:13:46;99838.81;;;6.72;93.05
16978;BME280;8605;52.548;4.918;2024-03-02T01:16:14;99827.59;;;6.68;93.07
16978;BME280;8605;52.548;4.918;2024-03-02T01:18:43;99842.78;;;6.68;93.07
16978;BME280;8605;52.548;4.918;2024-03-02T01:21:11;99842.97;;;6.66;93.02
16978;BME280;8605;52.548;4.918;2024-03-02T01:23:39;99846.44;;;6.59;93.29
16978;BME280;8605;52.548;4.918;2024-03-02T01:26:06;99854.97;;;6.62;93.06
16978;BME280;8605;52.548;4.918;2024-03-02T01:28:33;99857.63;;;6.62;93.25
16978;BME280;8605;52.548;4.918;2024-03-02T01:31:03;99845.25;;;6.61;93.03
16978;BME280;8605;52.548;4.918;2024-03-02T01:33:31;99833.38;;;6.56;93.40
16978;BME280;8605;52.548;4.918;2024-03-02T01:35:59;99839.03;;;6.53;93.22
16978;BME280;8605;52.548;4.918;2024-03-02T01:38:26;99830.66;;;6.48;93.65
16978;BME280;8605;52.548;4.918;2024-03-02T01:40:55;99829.97;;;6.46;92.80
16978;BME280;8605;52.548;4.918;2024-03-02T01:43:23;99837.16;;;6.45;93.11
16978;BME280;8605;52.548;4.918;2024-03-02T01:45:52;99830.44;;;6.41;93.59
16978;BME280;8605;52.548;4.918;2024-03-02T01:48:22;99839.13;;;6.43;93.75
16978;BME280;8605;52.548;4.918;2024-03-02T01:50:50;99832.72;;;6.36;94.42
16978;BME280;8605;52.548;4.918;2024-03-02T01:53:18;99827.72;;;6.33;94.41
16978;BME280;8605;52.548;4.918;2024-03-02T01:55:45;99844.56;;;6.33;94.09
16978;BME280;8605;52.548;4.918;2024-03-02T01:58:13;99856.09;;;6.34;94.24
16978;BME280;8605;52.548;4.918;2024-03-02T02:00:41;99868.47;;;6.35;94.16
16978;BME280;8605;52.548;4.918;2024-03-02T02:03:09;99872.28;;;6.32;94.38
16978;BME280;8605;52.548;4.918;2024-03-02T02:05:38;99870.13;;;6.36;94.16
16978;BME280;8605;52.548;4.918;2024-03-02T02:08:06;99877.06;;;6.29;94.38
16978;BME280;8605;52.548;4.918;2024-03-02T02:10:34;99868.84;;;6.22;94.40
16978;BME280;8605;52.548;4.918;2024-03-02T02:13:02;99884.88;;;6.22;94.48
16978;BME280;8605;52.548;4.918;2024-03-02T02:15:31;99882.53;;;6.19;94.44
16978;BME280;8605;52.548;4.918;2024-03-02T02:18:01;99876.03;;;6.22;94.88
16978;BME280;8605;52.548;4.918;2024-03-02T02:20:30;99871.13;;;6.17;94.36
16978;BME280;8605;52.548;4.918;2024-03-02T02:23:00;99867.97;;;5.96;94.18
16978;BME280;8605;52.548;4.918;2024-03-02T02:25:28;99900.53;;;6.17;94.89
16978;BME280;8605;52.548;4.918;2024-03-02T02:27:57;99885.81;;;6.13;94.68
16978;BME280;8605;52.548;4.918;2024-03-02T02:30:27;99877.09;;;6.11;94.67
16978;BME280;8605;52.548;4.918;2024-03-02T02:32:56;99857.97;;;6.16;94.38
16978;BME280;8605;52.548;4.918;2024-03-02T02:35:25;99871.09;;;6.09;94.48
16978;BME280;8605;52.548;4.918;2024-03-02T02:37:54;99881.06;;;6.07;94.54
16978;BME280;8605;52.548;4.918;2024-03-02T02:40:24;99880.94;;;6.09;94.11
16978;BME280;8605;52.548;4.918;2024-03-02T02:42:52;99880.22;;;6.07;94.29
16978;BME280;8605;52.548;4.918;2024-03-02T02:45:20;99866.66;;;6.00;94.78
16978;BME280;8605;52.548;4.918;2024-03-02T02:47:48;99875.59;;;6.09;94.43
16978;BME280;8605;52.548;4.918;2024-03-02T02:50:17;99879.25;;;6.08;94.30
16978;BME280;8605;52.548;4.918;2024-03-02T02:52:44;99877.25;;;6.10;94.69
16978;BME280;8605;52.548;4.918;2024-03-02T02:55:13;99874.56;;;6.10;94.56
16978;BME280;8605;52.548;4.918;2024-03-02T02:57:43;99884.13;;;6.12;94.44
16978;BME280;8605;52.548;4.918;2024-03-02T03:00:15;99870.91;;;6.11;94.87
16978;BME280;8605;52.548;4.918;2024-03-02T03:02:47;99883.44;;;6.10;94.85
16978;BME280;8605;52.548;4.918;2024-03-02T03:05:17;99880.59;;;6.12;94.94
16978;BME280;8605;52.548;4.918;2024-03-02T03:07:45;99888.47;;;6.13;94.68
16978;BME280;8605;52.548;4.918;2024-03-02T03:10:16;99899.31;;;6.12;94.46
16978;BME280;8605;52.548;4.918;2024-03-02T03:12:46;99896.50;;;6.13;94.09
16978;BME280;8605;52.548;4.918;2024-03-02T03:15:14;99902.66;;;6.14;94.24
16978;BME280;8605;52.548;4.918;2024-03-02T03:17:43;99900.00;;;6.14;94.43
16978;BME280;8605;52.548;4.918;2024-03-02T03:20:12;99891.00;;;6.15;93.83
16978;BME280;8605;52.548;4.918;2024-03-02T03:22:42;99888.31;;;6.15;93.73
16978;BME280;8605;52.548;4.918;2024-03-02T03:25:10;99897.19;;;6.15;93.83
16978;BME280;8605;52.548;4.918;2024-03-02T03:27:38;99902.66;;;6.14;93.83
16978;BME280;8605;52.548;4.918;2024-03-02T03:30:08;99892.81;;;6.14;93.80
16978;BME280;8605;52.548;4.918;2024-03-02T03:32:36;99898.03;;;6.16;94.15
16978;BME280;8605;52.548;4.918;2024-03-02T03:35:04;99900.84;;;6.14;94.06
16978;BME280;8605;52.548;4.918;2024-03-02T03:37:32;99903.50;;;6.14;93.85
16978;BME280;8605;52.548;4.918;2024-03-02T03:40:02;99906.19;;;6.14;93.74
16978;BME280;8605;52.548;4.918;2024-03-02T03:42:34;99907.16;;;6.13;94.03
16978;BME280;8605;52.548;4.918;2024-03-02T03:45:01;99917.00;;;6.13;94.14
16978;BME280;8605;52.548;4.918;2024-03-02T03:47:32;99899.78;;;6.07;93.73
16978;BME280;8605;52.548;4.918;2024-03-02T03:50:00;99908.91;;;6.05;94.06
16978;BME280;8605;52.548;4.918;2024-03-02T03:52:33;99907.69;;;5.99;93.82
16978;BME280;8605;52.548;4.918;2024-03-02T03:55:02;99909.53;;;5.98;94.17
16978;BME280;8605;52.548;4.918;2024-03-02T03:57:30;99904.78;;;5.92;94.15
16978;BME280;8605;52.548;4.918;2024-03-02T03:59:58;99919.81;;;5.93;94.55
16978;BME280;8605;52.548;4.918;2024-03-02T04:02:27;99920.69;;;5.84;94.60
16978;BME280;8605;52.548;4.918;2024-03-02T04:04:56;99927.03;;;5.83;94.42
16978;BME280;8605;52.548;4.918;2024-03-02T04:07:23;99936.69;;;5.84;94.43
16978;BME280;8605;52.548;4.918;2024-03-02T04:09:51;99937.72;;;5.83;94.45
16978;BME280;8605;52.548;4.918;2024-03-02T04:12:19;99933.66;;;5.79;94.41
16978;BME280;8605;52.548;4.918;2024-03-02T04:14:47;99927.59;;;5.77;94.80
16978;BME280;8605;52.548;4.918;2024-03-02T04:17:14;99922.88;;;5.71;94.25
16978;BME280;8605;52.548;4.918;2024-03-02T04:19:42;99933.53;;;5.71;94.74
16978;BME280;8605;52.548;4.918;2024-03-02T04:22:11;99932.16;;;5.67;94.85
16978;BME280;8605;52.548;4.918;2024-03-02T04:24:51;99924.16;;;5.67;95.22
16978;BME280;8605;52.548;4.918;2024-03-02T04:27:19;99928.81;;;5.65;94.60
16978;BME280;8605;52.548;4.918;2024-03-02T04:29:47;99939.91;;;5.70;94.53
16978;BME280;8605;52.548;4.918;2024-03-02T04:32:15;99937.59;;;5.75;95.09
16978;BME280;8605;52.548;4.918;2024-03-02T04:34:43;99939.28;;;5.76;94.88
16978;BME280;8605;52.548;4.918;2024-03-02T04:37:12;99939.97;;;5.78;94.15
16978;BME280;8605;52.548;4.918;2024-03-02T04:39:40;99948.66;;;5.80;94.75
16978;BME280;8605;52.548;4.918;2024-03-02T04:42:08;99955.97;;;5.78;95.08
16978;BME280;8605;52.548;4.918;2024-03-02T04:44:36;99950.34;;;5.81;94.20
16978;BME280;8605;52.548;4.918;2024-03-02T04:47:05;99943.94;;;5.74;94.05
16978;BME280;8605;52.548;4.918;2024-03-02T04:49:33;99945.31;;;5.78;94.42
16978;BME280;8605;52.548;4.918;2024-03-02T04:52:01;99946.16;;;5.79;94.05
16978;BME280;8605;52.548;4.918;2024-03-02T04:54:30;99955.69;;;5.81;93.84
16978;BME280;8605;52.548;4.918;2024-03-02T04:56:58;99958.13;;;5.75;93.63
16978;BME280;8605;52.548;4.918;2024-03-02T04:59:25;99956.56;;;5.72;93.92
16978;BME280;8605;52.548;4.918;2024-03-02T05:01:53;99958.84;;;5.67;93.77
16978;BME280;8605;52.548;4.918;2024-03-02T05:04:20;99965.88;;;5.68;93.37
16978;BME280;8605;52.548;4.918;2024-03-02T05:06:48;99957.75;;;5.70;92.93
16978;BME280;8605;52.548;4.918;2024-03-02T05:09:19;99957.88;;;5.68;93.31
16978;BME280;8605;52.548;4.918;2024-03-02T05:11:49;99952.41;;;5.70;92.87
16978;BME280;8605;52.548;4.918;2024-03-02T05:14:34;99965.88;;;5.68;93.37
16978;BME280;8605;52.548;4.918;2024-03-02T05:17:02;99968.44;;;5.60;93.34
16978;BME280;8605;52.548;4.918;2024-03-02T05:19:30;99975.75;;;5.58;93.41
16978;BME280;8605;52.548;4.918;2024-03-02T05:21:58;99977.56;;;5.57;93.30
16978;BME280;8605;52.548;4.918;2024-03-02T05:24:26;99974.38;;;5.54;93.45
16978;BME280;8605;52.548;4.918;2024-03-02T05:26:56;99976.06;;;5.55;93.57
16978;BME280;8605;52.548;4.918;2024-03-02T05:29:24;99976.50;;;5.50;93.53
16978;BME280;8605;52.548;4.918;2024-03-02T05:31:51;99968.25;;;5.44;94.24
16978;BME280;8605;52.548;4.918;2024-03-02T05:34:19;99990.44;;;5.44;93.56
16978;BME280;8605;52.548;4.918;2024-03-02T05:36:47;99976.97;;;5.36;94.06
16978;BME280;8605;52.548;4.918;2024-03-02T05:39:14;99978.81;;;5.36;94.46
16978;BME280;8605;52.548;4.918;2024-03-02T05:41:42;99988.75;;;5.34;93.89
16978;BME280;8605;52.548;4.918;2024-03-02T05:44:11;99994.22;;;5.32;94.37
16978;BME280;8605;52.548;4.918;2024-03-02T05:46:41;99995.78;;;5.35;94.61
16978;BME280;8605;52.548;4.918;2024-03-02T05:49:09;99999.44;;;5.34;94.43
16978;BME280;8605;52.548;4.918;2024-03-02T05:51:37;99987.97;;;5.23;94.27
16978;BME280;8605;52.548;4.918;2024-03-02T05:54:05;100002.41;;;5.31;94.09
16978;BME280;8605;52.548;4.918;2024-03-02T05:56:32;100004.50;;;5.27;94.60
16978;BME280;8605;52.548;4.918;2024-03-02T05:59:00;99999.47;;;5.24;94.70
16978;BME280;8605;52.548;4.918;2024-03-02T06:01:40;100010.28;;;5.22;94.76
16978;BME280;8605;52.548;4.918;2024-03-02T06:04:08;100004.38;;;5.19;94.88
16978;BME280;8605;52.548;4.918;2024-03-02T06:06:37;100017.72;;;5.19;94.99
16978;BME280;8605;52.548;4.918;2024-03-02T06:09:06;100019.84;;;5.15;94.78
16978;BME280;8605;52.548;4.918;2024-03-02T06:11:34;100022.22;;;5.18;95.23
16978;BME280;8605;52.548;4.918;2024-03-02T06:14:02;100006.78;;;5.12;94.35
16978;BME280;8605;52.548;4.918;2024-03-02T06:16:31;100012.69;;;5.16;94.63
16978;BME280;8605;52.548;4.918;2024-03-02T06:19:00;100011.31;;;5.12;95.04
16978;BME280;8605;52.548;4.918;2024-03-02T06:21:28;100016.06;;;5.08;94.62
16978;BME280;8605;52.548;4.918;2024-03-02T06:23:56;100011.84;;;5.06;94.77
16978;BME280;8605;52.548;4.918;2024-03-02T06:26:24;100013.84;;;5.04;95.08
16978;BME280;8605;52.548;4.918;2024-03-02T06:28:52;100011.31;;;5.02;94.80
16978;BME280;8605;52.548;4.918;2024-03-02T06:31:19;100014.94;;;5.01;94.88
16978;BME280;8605;52.548;4.918;2024-03-02T06:33:47;100018.19;;;4.95;95.22
16978;BME280;8605;52.548;4.918;2024-03-02T06:36:16;100017.91;;;4.98;95.64
16978;BME280;8605;52.548;4.918;2024-03-02T06:38:44;100021.81;;;4.94;95.34
16978;BME280;8605;52.548;4.918;2024-03-02T06:41:11;100024.22;;;4.97;95.42
16978;BME280;8605;52.548;4.918;2024-03-02T06:43:39;100036.56;;;4.98;95.78
16978;BME280;8605;52.548;4.918;2024-03-02T06:46:07;100041.19;;;4.96;95.63
16978;BME280;8605;52.548;4.918;2024-03-02T06:48:36;100034.88;;;4.97;95.23
16978;BME280;8605;52.548;4.918;2024-03-02T06:51:04;100037.25;;;5.00;95.00
16978;BME280;8605;52.548;4.918;2024-03-02T06:53:33;100046.09;;;5.01;95.26
16978;BME280;8605;52.548;4.918;2024-03-02T06:56:01;100041.59;;;5.01;94.89
16978;BME280;8605;52.548;4.918;2024-03-02T06:58:29;100043.69;;;5.07;94.93
16978;BME280;8605;52.548;4.918;2024-03-02T07:00:56;100048.75;;;5.10;93.75
16978;BME280;8605;52.548;4.918;2024-03-02T07:03:24;100046.78;;;5.12;94.44
16978;BME280;8605;52.548;4.918;2024-03-02T07:05:52;100043.25;;;5.21;92.88
16978;BME280;8605;52.548;4.918;2024-03-02T07:08:20;100041.97;;;5.26;92.91
16978;BME280;8605;52.548;4.918;2024-03-02T07:10:49;100038.34;;;5.27;93.16
16978;BME280;8605;52.548;4.918;2024-03-02T07:13:16;100040.16;;;5.36;92.60
16978;BME280;8605;52.548;4.918;2024-03-02T07:15:44;100040.84;;;5.38;92.09
16978;BME280;8605;52.548;4.918;2024-03-02T07:18:32;100035.22;;;5.41;92.14
16978;BME280;8605;52.548;4.918;2024-03-02T07:21:01;100034.50;;;5.48;91.89
16978;BME280;8605;52.548;4.918;2024-03-02T07:23:29;100048.94;;;5.46;91.90
16978;BME280;8605;52.548;4.918;2024-03-02T07:25:59;100048.28;;;5.44;92.31
16978;BME280;8605;52.548;4.918;2024-03-02T07:28:31;100059.31;;;5.58;91.30
16978;BME280;8605;52.548;4.918;2024-03-02T07:31:00;100053.25;;;5.66;91.26
16978;BME280;8605;52.548;4.918;2024-03-02T07:33:31;100054.13;;;5.57;91.10
16978;BME280;8605;52.548;4.918;2024-03-02T07:36:00;100054.81;;;5.59;91.03
16978;BME280;8605;52.548;4.918;2024-03-02T07:38:31;100072.06;;;5.64;90.87
16978;BME280;8605;52.548;4.918;2024-03-02T07:41:02;100072.50;;;5.70;90.76
16978;BME280;8605;52.548;4.918;2024-03-02T07:43:31;100074.59;;;5.76;91.28
16978;BME280;8605;52.548;4.918;2024-03-02T07:45:59;100074.59;;;5.76;90.91
16978;BME280;8605;52.548;4.918;2024-03-02T07:48:27;100074.72;;;5.74;90.25
16978;BME280;8605;52.548;4.918;2024-03-02T07:50:55;100079.06;;;5.75;90.32
16978;BME280;8605;52.548;4.918;2024-03-02T07:53:28;100083.84;;;5.81;90.27
16978;BME280;8605;52.548;4.918;2024-03-02T07:55:56;100076.53;;;5.83;90.12
16978;BME280;8605;52.548;4.918;2024-03-02T07:58:30;100085.81;;;5.89;89.57
16978;BME280;8605;52.548;4.918;2024-03-02T08:01:00;100078.63;;;5.89;89.24
16978;BME280;8605;52.548;4.918;2024-03-02T08:03:28;100090.56;;;5.95;90.14
16978;BME280;8605;52.548;4.918;2024-03-02T08:05:58;100093.66;;;5.90;89.51
16978;BME280;8605;52.548;4.918;2024-03-02T08:08:26;100094.84;;;6.06;89.06
16978;BME280;8605;52.548;4.918;2024-03-02T08:10:54;100099.84;;;6.18;88.99
16978;BME280;8605;52.548;4.918;2024-03-02T08:13:24;100092.09;;;6.25;88.61
16978;BME280;8605;52.548;4.918;2024-03-02T08:15:54;100085.31;;;6.30;87.90
16978;BME280;8605;52.548;4.918;2024-03-02T08:18:22;100092.91;;;6.35;87.89
16978;BME280;8605;52.548;4.918;2024-03-02T08:20:50;100092.28;;;6.41;87.17
16978;BME280;8605;52.548;4.918;2024-03-02T08:23:18;100093.66;;;6.45;87.31
16978;BME280;8605;52.548;4.918;2024-03-02T08:25:45;100095.03;;;6.49;86.48
16978;BME280;8605;52.548;4.918;2024-03-02T08:28:13;100101.78;;;6.53;86.61
16978;BME280;8605;52.548;4.918;2024-03-02T08:30:41;100084.75;;;6.54;86.14
16978;BME280;8605;52.548;4.918;2024-03-02T08:33:10;100091.63;;;6.57;87.42
16978;BME280;8605;52.548;4.918;2024-03-02T08:35:38;100090.16;;;6.62;87.08
16978;BME280;8605;52.548;4.918;2024-03-02T08:38:06;100089.19;;;6.63;85.68
16978;BME280;8605;52.548;4.918;2024-03-02T08:40:34;100077.44;;;6.74;86.13
16978;BME280;8605;52.548;4.918;2024-03-02T08:43:02;100076.97;;;6.78;85.64
16978;BME280;8605;52.548;4.918;2024-03-02T08:45:30;100069.25;;;6.75;85.20
16978;BME280;8605;52.548;4.918;2024-03-02T08:47:58;100089.56;;;6.68;87.11
16978;BME280;8605;52.548;4.918;2024-03-02T08:50:27;100073.47;;;6.78;85.86
16978;BME280;8605;52.548;4.918;2024-03-02T08:52:55;100085.75;;;6.89;85.48
16978;BME280;8605;52.548;4.918;2024-03-02T08:55:23;100074.53;;;6.85;85.27
16978;BME280;8605;52.548;4.918;2024-03-02T08:57:53;100082.09;;;6.90;85.22
16978;BME280;8605;52.548;4.918;2024-03-02T09:00:21;100070.78;;;6.96;85.38
16978;BME280;8605;52.548;4.918;2024-03-02T09:02:49;100076.34;;;7.02;84.99
16978;BME280;8605;52.548;4.918;2024-03-02T09:05:17;100083.16;;;6.97;85.50
16978;BME280;8605;52.548;4.918;2024-03-02T09:07:48;100083.25;;;7.05;84.69
16978;BME280;8605;52.548;4.918;2024-03-02T09:10:16;100086.81;;;7.13;85.30
16978;BME280;8605;52.548;4.918;2024-03-02T09:12:43;100084.06;;;7.23;84.22
16978;BME280;8605;52.548;4.918;2024-03-02T09:15:11;100098.72;;;7.37;84.14
16978;BME280;8605;52.548;4.918;2024-03-02T09:17:39;100096.91;;;7.37;83.01
16978;BME280;8605;52.548;4.918;2024-03-02T09:20:07;100099.66;;;7.28;84.56
16978;BME280;8605;52.548;4.918;2024-03-02T09:22:35;100106.75;;;7.37;85.11
16978;BME280;8605;52.548;4.918;2024-03-02T09:25:05;100107.38;;;7.31;84.66
16978;BME280;8605;52.548;4.918;2024-03-02T09:27:36;100105.97;;;7.44;85.06
16978;BME280;8605;52.548;4.918;2024-03-02T09:30:06;100107.06;;;7.59;84.14
16978;BME280;8605;52.548;4.918;2024-03-02T09:32:36;100112.97;;;7.63;82.86
16978;BME280;8605;52.548;4.918;2024-03-02T09:35:04;100110.34;;;7.45;83.44
16978;BME280;8605;52.548;4.918;2024-03-02T09:37:32;100117.69;;;7.43;84.12
16978;BME280;8605;52.548;4.918;2024-03-02T09:40:00;100115.81;;;7.61;82.20
16978;BME280;8605;52.548;4.918;2024-03-02T09:42:29;100113.25;;;7.78;81.82
16978;BME280;8605;52.548;4.918;2024-03-02T09:44:58;100117.56;;;7.79;81.57
16978;BME280;8605;52.548;4.918;2024-03-02T09:47:26;100110.44;;;7.87;81.41
16978;BME280;8605;52.548;4.918;2024-03-02T09:49:54;100109.31;;;7.98;81.40
16978;BME280;8605;52.548;4.918;2024-03-02T09:52:23;100111.34;;;8.04;80.34
16978;BME280;8605;52.548;4.918;2024-03-02T09:54:51;100107.69;;;8.05;79.51
16978;BME280;8605;52.548;4.918;2024-03-02T09:57:19;100102.97;;;7.99;79.05
16978;BME280;8605;52.548;4.918;2024-03-02T09:59:48;100109.53;;;8.04;78.72
16978;BME280;8605;52.548;4.918;2024-03-02T10:02:15;100102.03;;;8.08;79.05
16978;BME280;8605;52.548;4.918;2024-03-02T10:04:43;100103.81;;;7.99;78.07
16978;BME280;8605;52.548;4.918;2024-03-02T10:07:14;100109.81;;;8.27;78.72
16978;BME280;8605;52.548;4.918;2024-03-02T10:09:42;100115.13;;;8.19;78.81
16978;BME280;8605;52.548;4.918;2024-03-02T10:12:14;100114.56;;;8.33;78.48
16978;BME280;8605;52.548;4.918;2024-03-02T10:14:43;100097.31;;;8.36;78.83
16978;BME280;8605;52.548;4.918;2024-03-02T10:17:17;100101.72;;;8.53;78.23
16978;BME280;8605;52.548;4.918;2024-03-02T10:19:45;100113.31;;;8.54;77.88
16978;BME280;8605;52.548;4.918;2024-03-02T10:22:13;100097.53;;;8.51;77.07
16978;BME280;8605;52.548;4.918;2024-03-02T10:24:42;100106.09;;;8.62;77.08
16978;BME280;8605;52.548;4.918;2024-03-02T10:27:15;100106.09;;;8.54;77.25
16978;BME280;8605;52.548;4.918;2024-03-02T10:29:46;100106.97;;;8.71;77.03
16978;BME280;8605;52.548;4.918;2024-03-02T10:32:15;100115.69;;;8.73;77.31
16978;BME280;8605;52.548;4.918;2024-03-02T10:34:45;100110.38;;;8.81;77.61
16978;BME280;8605;52.548;4.918;2024-03-02T10:37:14;100117.03;;;8.77;77.33
16978;BME280;8605;52.548;4.918;2024-03-02T10:39:45;100119.06;;;8.83;77.62
16978;BME280;8605;52.548;4.918;2024-03-02T10:42:14;100111.34;;;8.88;76.68
16978;BME280;8605;52.548;4.918;2024-03-02T10:44:43;100112.38;;;8.87;77.07
16978;BME280;8605;52.548;4.918;2024-03-02T10:47:12;100112.00;;;8.82;77.76
16978;BME280;8605;52.548;4.918;2024-03-02T10:49:42;100104.69;;;8.92;75.92
16978;BME280;8605;52.548;4.918;2024-03-02T10:52:14;100105.19;;;8.88;77.14
16978;BME280;8605;52.548;4.918;2024-03-02T10:54:42;100094.63;;;8.94;77.82
16978;BME280;8605;52.548;4.918;2024-03-02T10:57:13;100092.63;;;9.12;75.98
16978;BME280;8605;52.548;4.918;2024-03-02T10:59:51;100086.91;;;9.15;75.54
16978;BME280;8605;52.548;4.918;2024-03-02T11:02:24;100079.53;;;9.09;75.22
16978;BME280;8605;52.548;4.918;2024-03-02T11:04:55;100093.78;;;9.18;73.68
16978;BME280;8605;52.548;4.918;2024-03-02T11:07:22;100091.97;;;9.18;73.71
16978;BME280;8605;52.548;4.918;2024-03-02T11:09:54;100100.16;;;9.17;73.20
16978;BME280;8605;52.548;4.918;2024-03-02T11:12:29;100091.09;;;9.10;74.47
16978;BME280;8605;52.548;4.918;2024-03-02T11:14:58;100091.09;;;9.02;75.73
16978;BME280;8605;52.548;4.918;2024-03-02T11:17:26;100086.06;;;9.15;73.59
16978;BME280;8605;52.548;4.918;2024-03-02T11:19:56;100083.38;;;9.23;72.51
16978;BME280;8605;52.548;4.918;2024-03-02T11:22:27;100088.91;;;9.21;74.29
16978;BME280;8605;52.548;4.918;2024-03-02T11:24:58;100088.94;;;9.13;73.61
16978;BME280;8605;52.548;4.918;2024-03-02T11:30:49;100086.41;;;9.28;72.97
16978;BME280;8605;52.548;4.918;2024-03-02T11:33:24;100088.59;;;9.33;70.07
16978;BME280;8605;52.548;4.918;2024-03-02T11:35:56;100086.91;;;9.32;70.06
16978;BME280;8605;52.548;4.918;2024-03-02T11:38:28;100086.56;;;9.35;72.78
16978;BME280;8605;52.548;4.918;2024-03-02T11:40:56;100101.00;;;9.58;70.27
16978;BME280;8605;52.548;4.918;2024-03-02T11:43:29;100087.06;;;9.54;69.22
16978;BME280;8605;52.548;4.918;2024-03-02T11:46:00;100072.31;;;9.34;68.77
16978;BME280;8605;52.548;4.918;2024-03-02T11:48:31;100083.19;;;9.65;69.31
16978;BME280;8605;52.548;4.918;2024-03-02T11:51:00;100081.69;;;9.54;68.91
16978;BME280;8605;52.548;4.918;2024-03-02T11:53:28;100086.38;;;9.60;68.79
16978;BME280;8605;52.548;4.918;2024-03-02T11:56:01;100078.84;;;9.56;69.99
16978;BME280;8605;52.548;4.918;2024-03-02T11:58:30;100072.09;;;9.60;69.75
16978;BME280;8605;52.548;4.918;2024-03-02T12:00:57;100069.94;;;9.63;68.63
16978;BME280;8605;52.548;4.918;2024-03-02T12:03:28;100067.56;;;9.60;67.60
16978;BME280;8605;52.548;4.918;2024-03-02T12:05:56;100066.72;;;9.68;66.59
16978;BME280;8605;52.548;4.918;2024-03-02T12:08:26;100075.09;;;9.73;67.18
16978;BME280;8605;52.548;4.918;2024-03-02T12:10:58;100070.09;;;9.62;66.07
16978;BME280;8605;52.548;4.918;2024-03-02T12:13:27;100063.72;;;9.71;67.99
16978;BME280;8605;52.548;4.918;2024-03-02T12:15:55;100063.50;;;9.73;65.57
16978;BME280;8605;52.548;4.918;2024-03-02T12:18:23;100065.56;;;9.71;66.56
16978;BME280;8605;52.548;4.918;2024-03-02T12:20:52;100062.50;;;9.74;65.69
16978;BME280;8605;52.548;4.918;2024-03-02T12:23:25;100066.41;;;9.71;64.11
16978;BME280;8605;52.548;4.918;2024-03-02T12:25:53;100077.09;;;9.87;66.17
16978;BME280;8605;52.548;4.918;2024-03-02T12:28:21;100063.03;;;9.77;66.76
16978;BME280;8605;52.548;4.918;2024-03-02T12:30:49;100065.66;;;9.85;66.55
16978;BME280;8605;52.548;4.918;2024-03-02T12:33:17;100041.69;;;9.84;65.86
16978;BME280;8605;52.548;4.918;2024-03-02T12:35:45;100050.72;;;9.91;66.12
16978;BME280;8605;52.548;4.918;2024-03-02T12:38:14;100048.88;;;9.91;64.53
16978;BME280;8605;52.548;4.918;2024-03-02T12:40:43;100038.06;;;10.08;64.21
16978;BME280;8605;52.548;4.918;2024-03-02T12:43:11;100042.06;;;10.12;65.13
16978;BME280;8605;52.548;4.918;2024-03-02T12:45:39;100036.34;;;10.15;67.36
16978;BME280;8605;52.548;4.918;2024-03-02T12:48:07;100030.66;;;10.10;61.69
16978;BME280;8605;52.548;4.918;2024-03-02T12:50:35;100024.59;;;10.24;65.18
16978;BME280;8605;52.548;4.918;2024-03-02T12:53:03;100030.97;;;10.15;63.20
16978;BME280;8605;52.548;4.918;2024-03-02T12:55:31;100015.03;;;10.05;63.57
16978;BME280;8605;52.548;4.918;2024-03-02T12:58:00;100007.47;;;10.09;64.39
16978;BME280;8605;52.548;4.918;2024-03-02T13:00:29;100010.69;;;10.04;66.07
16978;BME280;8605;52.548;4.918;2024-03-02T13:03:01;100016.91;;;10.05;67.01
16978;BME280;8605;52.548;4.918;2024-03-02T13:05:30;100012.69;;;10.10;66.03
16978;BME280;8605;52.548;4.918;2024-03-02T13:07:58;100006.28;;;10.19;66.67
16978;BME280;8605;52.548;4.918;2024-03-02T13:10:27;100008.09;;;10.27;65.62
16978;BME280;8605;52.548;4.918;2024-03-02T13:12:56;100015.84;;;10.14;65.13
16978;BME280;8605;52.548;4.918;2024-03-02T13:15:25;100019.22;;;10.16;65.19
16978;BME280;8605;52.548;4.918;2024-03-02T13:17:53;100019.22;;;10.24;65.53
16978;BME280;8605;52.548;4.918;2024-03-02T13:20:21;100024.47;;;10.40;67.41
16978;BME280;8605;52.548;4.918;2024-03-02T13:22:51;100018.50;;;10.30;64.27
16978;BME280;8605;52.548;4.918;2024-03-02T13:25:19;100018.13;;;10.33;64.54
16978;BME280;8605;52.548;4.918;2024-03-02T13:27:47;100007.78;;;10.22;64.70